sensor_id;sensor_type;location;lat;lon;timestamp;temperature;humidity
22966;DHT22;11649;48.090;9.754;2022-10-26T00:01:05;11.20;99.90
22966;DHT22;11649;48.090;9.754;2022-10-26T00:03:33;11.30;99.90
22966;DHT22;11649;48.090;9.754;2022-10-26T00:06:15;11.40;99.90
22966;DHT22;11649;48.090;9.754;2022-10-26T00:08:43;11.30;99.90
22966;DHT22;11649;48.090;9.754;2022-10-26T00:11:10;11.30;99.90
22966;DHT22;11649;48.090;9.754;2022-10-26T00:13:38;11.50;99.90
22966;DHT22;11649;48.090;9.754;2022-10-26T00:16:25;11.90;99.90
22966;DHT22;11649;48.090;9.754;2022-10-26T00:18:53;11.50;99.90
22966;DHT22;11649;48.090;9.754;2022-10-26T00:21:20;11.80;99.90
22966;DHT22;11649;48.090;9.754;2022-10-26T00:23:46;11.60;99.90
22966;DHT22;11649;48.090;9.754;2022-10-26T00:26:13;11.60;99.90
22966;DHT22;11649;48.090;9.754;2022-10-26T00:28:40;11.70;99.90
22966;DHT22;11649;48.090;9.754;2022-10-26T00:31:11;11.70;99.90
22966;DHT22;11649;48.090;9.754;2022-10-26T00:33:38;11.80;99.90
22966;DHT22;11649;48.090;9.754;2022-10-26T00:36:05;11.80;99.90
22966;DHT22;11649;48.090;9.754;2022-10-26T00:38:35;11.80;99.90
22966;DHT22;11649;48.090;9.754;2022-10-26T00:41:02;11.80;99.90
22966;DHT22;11649;48.090;9.754;2022-10-26T00:45:58;11.80;99.90
22966;DHT22;11649;48.090;9.754;2022-10-26T00:48:28;11.80;99.90
22966;DHT22;11649;48.090;9.754;2022-10-26T00:50:59;12.00;99.90
22966;DHT22;11649;48.090;9.754;2022-10-26T00:53:26;11.90;99.90
22966;DHT22;11649;48.090;9.754;2022-10-26T00:55:54;12.00;99.90
22966;DHT22;11649;48.090;9.754;2022-10-26T00:58:22;12.00;99.90
22966;DHT22;11649;48.090;9.754;2022-10-26T01:00:50;12.50;99.90
22966;DHT22;11649;48.090;9.754;2022-10-26T01:03:17;12.30;99.90
22966;DHT22;11649;48.090;9.754;2022-10-26T01:05:45;11.80;99.90
22966;DHT22;11649;48.090;9.754;2022-10-26T01:08:14;12.00;99.90
22966;DHT22;11649;48.090;9.754;2022-10-26T01:10:42;12.30;99.90
22966;DHT22;11649;48.090;9.754;2022-10-26T01:13:09;11.80;99.90
22966;DHT22;11649;48.090;9.754;2022-10-26T01:19:16;11.50;99.90
22966;DHT22;11649;48.090;9.754;2022-10-26T01:27:19;11.30;99.90
22966;DHT22;11649;48.090;9.754;2022-10-26T01:30:17;11.20;99.90
22966;DHT22;11649;48.090;9.754;2022-10-26T01:35:37;11.40;99.90
22966;DHT22;11649;48.090;9.754;2022-10-26T01:38:32;11.40;99.90
22966;DHT22;11649;48.090;9.754;2022-10-26T01:43:34;11.40;99.90
22966;DHT22;11649;48.090;9.754;2022-10-26T01:46:06;11.40;99.90
22966;DHT22;11649;48.090;9.754;2022-10-26T01:48:35;11.50;99.90
22966;DHT22;11649;48.090;9.754;2022-10-26T01:51:03;11.60;99.90
22966;DHT22;11649;48.090;9.754;2022-10-26T01:53:31;11.40;99.90
22966;DHT22;11649;48.090;9.754;2022-10-26T01:55:58;11.40;99.90
22966;DHT22;11649;48.090;9.754;2022-10-26T02:20:48;11.50;99.90
22966;DHT22;11649;48.090;9.754;2022-10-26T02:23:17;11.50;99.90
22966;DHT22;11649;48.090;9.754;2022-10-26T02:25:50;11.50;99.90
22966;DHT22;11649;48.090;9.754;2022-10-26T02:28:25;11.50;99.90
22966;DHT22;11649;48.090;9.754;2022-10-26T02:30:56;11.40;99.90
22966;DHT22;11649;48.090;9.754;2022-10-26T02:33:25;11.40;99.90
22966;DHT22;11649;48.090;9.754;2022-10-26T02:35:58;11.20;99.90
22966;DHT22;11649;48.090;9.754;2022-10-26T02:38:28;11.40;99.90
22966;DHT22;11649;48.090;9.754;2022-10-26T02:40:57;11.00;99.90
22966;DHT22;11649;48.090;9.754;2022-10-26T02:43:26;10.80;99.90
22966;DHT22;11649;48.090;9.754;2022-10-26T02:45:58;11.00;99.90
22966;DHT22;11649;48.090;9.754;2022-10-26T02:48:25;11.20;99.90
22966;DHT22;11649;48.090;9.754;2022-10-26T02:56:02;11.30;99.90
22966;DHT22;11649;48.090;9.754;2022-10-26T02:58:32;11.50;99.90
22966;DHT22;11649;48.090;9.754;2022-10-26T03:01:00;11.40;99.90
22966;DHT22;11649;48.090;9.754;2022-10-26T03:03:27;11.90;99.90
22966;DHT22;11649;48.090;9.754;2022-10-26T03:05:54;11.40;99.90
22966;DHT22;11649;48.090;9.754;2022-10-26T03:08:20;12.40;99.90
22966;DHT22;11649;48.090;9.754;2022-10-26T03:10:47;11.50;99.90
22966;DHT22;11649;48.090;9.754;2022-10-26T03:13:14;12.30;99.90
22966;DHT22;11649;48.090;9.754;2022-10-26T03:15:41;11.50;99.90
22966;DHT22;11649;48.090;9.754;2022-10-26T03:18:07;11.10;99.90
22966;DHT22;11649;48.090;9.754;2022-10-26T03:20:34;11.20;99.90
22966;DHT22;11649;48.090;9.754;2022-10-26T03:23:01;11.60;99.90
22966;DHT22;11649;48.090;9.754;2022-10-26T03:25:28;11.40;99.90
22966;DHT22;11649;48.090;9.754;2022-10-26T03:27:59;11.40;99.90
22966;DHT22;11649;48.090;9.754;2022-10-26T03:30:28;11.30;99.90
22966;DHT22;11649;48.090;9.754;2022-10-26T03:32:56;11.70;99.90
22966;DHT22;11649;48.090;9.754;2022-10-26T03:35:23;11.40;99.90
22966;DHT22;11649;48.090;9.754;2022-10-26T03:37:50;11.30;99.90
22966;DHT22;11649;48.090;9.754;2022-10-26T03:40:17;11.30;99.90
22966;DHT22;11649;48.090;9.754;2022-10-26T03:42:44;11.30;99.90
22966;DHT22;11649;48.090;9.754;2022-10-26T03:45:11;11.30;99.90
22966;DHT22;11649;48.090;9.754;2022-10-26T03:47:45;11.40;99.90
22966;DHT22;11649;48.090;9.754;2022-10-26T03:50:14;11.30;99.90
22966;DHT22;11649;48.090;9.754;2022-10-26T03:52:41;11.40;99.90
22966;DHT22;11649;48.090;9.754;2022-10-26T03:55:08;11.50;99.90
22966;DHT22;11649;48.090;9.754;2022-10-26T03:57:44;11.90;99.90
22966;DHT22;11649;48.090;9.754;2022-10-26T04:00:13;11.60;99.90
22966;DHT22;11649;48.090;9.754;2022-10-26T04:02:44;11.40;99.90
22966;DHT22;11649;48.090;9.754;2022-10-26T04:05:14;11.30;99.90
22966;DHT22;11649;48.090;9.754;2022-10-26T04:07:42;11.50;99.90
22966;DHT22;11649;48.090;9.754;2022-10-26T04:10:09;11.60;99.90
22966;DHT22;11649;48.090;9.754;2022-10-26T04:12:37;11.70;99.90
22966;DHT22;11649;48.090;9.754;2022-10-26T04:15:05;11.50;99.90
22966;DHT22;11649;48.090;9.754;2022-10-26T04:17:33;11.60;99.90
22966;DHT22;11649;48.090;9.754;2022-10-26T04:20:00;11.90;99.90
22966;DHT22;11649;48.090;9.754;2022-10-26T04:22:26;11.70;99.90
22966;DHT22;11649;48.090;9.754;2022-10-26T04:24:53;11.70;99.90
22966;DHT22;11649;48.090;9.754;2022-10-26T04:27:20;11.80;99.90
22966;DHT22;11649;48.090;9.754;2022-10-26T04:29:47;11.70;99.90
22966;DHT22;11649;48.090;9.754;2022-10-26T04:32:14;11.40;99.90
22966;DHT22;11649;48.090;9.754;2022-10-26T04:34:40;11.50;99.90
22966;DHT22;11649;48.090;9.754;2022-10-26T04:37:07;11.40;99.90
22966;DHT22;11649;48.090;9.754;2022-10-26T04:39:34;11.70;99.90
22966;DHT22;11649;48.090;9.754;2022-10-26T04:42:01;11.50;99.90
22966;DHT22;11649;48.090;9.754;2022-10-26T04:44:27;11.60;99.90
22966;DHT22;11649;48.090;9.754;2022-10-26T04:46:54;12.20;99.90
22966;DHT22;11649;48.090;9.754;2022-10-26T04:49:21;11.80;99.90
22966;DHT22;11649;48.090;9.754;2022-10-26T04:51:47;11.80;99.90
22966;DHT22;11649;48.090;9.754;2022-10-26T04:54:14;11.90;99.90
22966;DHT22;11649;48.090;9.754;2022-10-26T04:56:41;12.00;99.90
22966;DHT22;11649;48.090;9.754;2022-10-26T04:59:08;12.00;99.90
22966;DHT22;11649;48.090;9.754;2022-10-26T05:01:34;12.10;99.90
22966;DHT22;11649;48.090;9.754;2022-10-26T05:04:01;12.10;99.90
22966;DHT22;11649;48.090;9.754;2022-10-26T05:06:28;11.90;99.90
22966;DHT22;11649;48.090;9.754;2022-10-26T05:08:55;12.30;99.90
22966;DHT22;11649;48.090;9.754;2022-10-26T05:11:22;12.10;99.90
22966;DHT22;11649;48.090;9.754;2022-10-26T05:13:49;12.10;99.90
22966;DHT22;11649;48.090;9.754;2022-10-26T05:16:15;12.40;99.90
22966;DHT22;11649;48.090;9.754;2022-10-26T05:18:42;12.20;99.90
22966;DHT22;11649;48.090;9.754;2022-10-26T05:21:09;12.30;99.90
22966;DHT22;11649;48.090;9.754;2022-10-26T05:23:37;12.30;99.90
22966;DHT22;11649;48.090;9.754;2022-10-26T05:26:04;12.20;99.90
22966;DHT22;11649;48.090;9.754;2022-10-26T05:28:31;12.20;99.90
22966;DHT22;11649;48.090;9.754;2022-10-26T05:30:58;12.20;99.90
22966;DHT22;11649;48.090;9.754;2022-10-26T05:33:25;12.20;99.90
22966;DHT22;11649;48.090;9.754;2022-10-26T05:35:55;12.50;99.90
22966;DHT22;11649;48.090;9.754;2022-10-26T05:38:21;12.20;99.90
22966;DHT22;11649;48.090;9.754;2022-10-26T05:40:49;12.00;99.90
22966;DHT22;11649;48.090;9.754;2022-10-26T05:43:17;12.20;99.90
22966;DHT22;11649;48.090;9.754;2022-10-26T05:45:44;12.00;99.90
22966;DHT22;11649;48.090;9.754;2022-10-26T05:48:11;12.10;99.90
22966;DHT22;11649;48.090;9.754;2022-10-26T05:50:38;12.50;99.90
22966;DHT22;11649;48.090;9.754;2022-10-26T05:53:05;13.00;99.90
22966;DHT22;11649;48.090;9.754;2022-10-26T05:55:32;12.90;99.90
22966;DHT22;11649;48.090;9.754;2022-10-26T05:57:59;12.10;99.90
22966;DHT22;11649;48.090;9.754;2022-10-26T06:00:27;12.20;99.90
22966;DHT22;11649;48.090;9.754;2022-10-26T06:03:16;12.20;99.90
22966;DHT22;11649;48.090;9.754;2022-10-26T06:05:53;12.10;99.90
22966;DHT22;11649;48.090;9.754;2022-10-26T06:08:22;12.10;99.90
22966;DHT22;11649;48.090;9.754;2022-10-26T06:10:51;12.20;99.90
22966;DHT22;11649;48.090;9.754;2022-10-26T06:13:19;12.10;99.90
22966;DHT22;11649;48.090;9.754;2022-10-26T06:19:09;12.20;99.90
22966;DHT22;11649;48.090;9.754;2022-10-26T06:32:09;12.30;99.90
22966;DHT22;11649;48.090;9.754;2022-10-26T06:34:42;12.30;99.90
22966;DHT22;11649;48.090;9.754;2022-10-26T06:37:11;12.40;99.90
22966;DHT22;11649;48.090;9.754;2022-10-26T06:39:43;12.30;99.90
22966;DHT22;11649;48.090;9.754;2022-10-26T06:42:11;13.00;99.90
22966;DHT22;11649;48.090;9.754;2022-10-26T06:44:38;12.40;99.90
22966;DHT22;11649;48.090;9.754;2022-10-26T06:47:09;12.30;99.90
22966;DHT22;11649;48.090;9.754;2022-10-26T06:50:10;12.40;99.90
22966;DHT22;11649;48.090;9.754;2022-10-26T06:55:41;12.70;99.90
22966;DHT22;11649;48.090;9.754;2022-10-26T06:58:14;12.70;99.90
22966;DHT22;11649;48.090;9.754;2022-10-26T07:00:43;12.70;99.90
22966;DHT22;11649;48.090;9.754;2022-10-26T07:03:10;12.60;99.90
22966;DHT22;11649;48.090;9.754;2022-10-26T07:05:37;12.70;99.90
22966;DHT22;11649;48.090;9.754;2022-10-26T07:08:04;12.80;99.90
22966;DHT22;11649;48.090;9.754;2022-10-26T07:10:31;13.60;99.90
22966;DHT22;11649;48.090;9.754;2022-10-26T07:13:00;12.70;99.90
22966;DHT22;11649;48.090;9.754;2022-10-26T07:15:27;12.70;99.90
22966;DHT22;11649;48.090;9.754;2022-10-26T07:17:54;12.70;99.90
22966;DHT22;11649;48.090;9.754;2022-10-26T07:20:21;12.70;99.90
22966;DHT22;11649;48.090;9.754;2022-10-26T07:22:55;13.10;99.90
22966;DHT22;11649;48.090;9.754;2022-10-26T07:25:23;12.70;99.90
22966;DHT22;11649;48.090;9.754;2022-10-26T07:27:50;12.70;99.90
22966;DHT22;11649;48.090;9.754;2022-10-26T07:30:17;12.70;99.90
22966;DHT22;11649;48.090;9.754;2022-10-26T07:32:44;12.70;99.90
22966;DHT22;11649;48.090;9.754;2022-10-26T07:35:11;12.70;99.90
22966;DHT22;11649;48.090;9.754;2022-10-26T07:37:38;12.70;99.90
22966;DHT22;11649;48.090;9.754;2022-10-26T07:40:05;13.20;99.90
22966;DHT22;11649;48.090;9.754;2022-10-26T07:42:33;12.80;99.90
22966;DHT22;11649;48.090;9.754;2022-10-26T07:45:02;13.50;99.90
22966;DHT22;11649;48.090;9.754;2022-10-26T07:47:29;12.80;99.90
22966;DHT22;11649;48.090;9.754;2022-10-26T07:49:56;12.80;99.90
22966;DHT22;11649;48.090;9.754;2022-10-26T07:52:22;12.90;99.90
22966;DHT22;11649;48.090;9.754;2022-10-26T07:54:49;12.80;99.90
22966;DHT22;11649;48.090;9.754;2022-10-26T07:57:16;12.80;99.90
22966;DHT22;11649;48.090;9.754;2022-10-26T07:59:43;12.90;99.90
22966;DHT22;11649;48.090;9.754;2022-10-26T08:02:10;13.10;99.90
22966;DHT22;11649;48.090;9.754;2022-10-26T08:04:37;13.00;99.90
22966;DHT22;11649;48.090;9.754;2022-10-26T08:07:03;13.00;99.90
22966;DHT22;11649;48.090;9.754;2022-10-26T08:09:30;13.00;99.90
22966;DHT22;11649;48.090;9.754;2022-10-26T08:11:57;13.50;99.90
22966;DHT22;11649;48.090;9.754;2022-10-26T08:14:23;13.00;99.90
22966;DHT22;11649;48.090;9.754;2022-10-26T08:16:50;14.00;99.90
22966;DHT22;11649;48.090;9.754;2022-10-26T08:19:18;13.20;99.90
22966;DHT22;11649;48.090;9.754;2022-10-26T08:21:45;13.30;99.90
22966;DHT22;11649;48.090;9.754;2022-10-26T08:24:12;13.40;99.90
22966;DHT22;11649;48.090;9.754;2022-10-26T08:26:39;13.90;99.90
22966;DHT22;11649;48.090;9.754;2022-10-26T08:29:06;14.20;99.90
22966;DHT22;11649;48.090;9.754;2022-10-26T08:31:33;13.40;99.90
22966;DHT22;11649;48.090;9.754;2022-10-26T08:34:00;13.50;99.90
22966;DHT22;11649;48.090;9.754;2022-10-26T08:36:27;13.70;99.90
22966;DHT22;11649;48.090;9.754;2022-10-26T08:38:54;13.80;99.90
22966;DHT22;11649;48.090;9.754;2022-10-26T08:41:36;14.00;99.90
22966;DHT22;11649;48.090;9.754;2022-10-26T08:44:12;14.10;99.90
22966;DHT22;11649;48.090;9.754;2022-10-26T08:46:47;14.10;99.90
22966;DHT22;11649;48.090;9.754;2022-10-26T08:49:21;14.10;99.90
22966;DHT22;11649;48.090;9.754;2022-10-26T08:51:52;14.20;99.90
22966;DHT22;11649;48.090;9.754;2022-10-26T08:54:36;14.30;99.90
22966;DHT22;11649;48.090;9.754;2022-10-26T08:57:21;14.30;99.90
22966;DHT22;11649;48.090;9.754;2022-10-26T08:59:57;14.30;99.90
22966;DHT22;11649;48.090;9.754;2022-10-26T09:02:25;14.40;99.90
22966;DHT22;11649;48.090;9.754;2022-10-26T09:04:53;14.40;99.90
22966;DHT22;11649;48.090;9.754;2022-10-26T09:12:58;14.60;99.90
22966;DHT22;11649;48.090;9.754;2022-10-26T09:18:40;14.80;99.90
22966;DHT22;11649;48.090;9.754;2022-10-26T09:26:45;15.20;99.90
22966;DHT22;11649;48.090;9.754;2022-10-26T09:29:18;15.50;99.90
22966;DHT22;11649;48.090;9.754;2022-10-26T09:31:47;15.60;99.90
22966;DHT22;11649;48.090;9.754;2022-10-26T09:34:42;15.80;99.90
22966;DHT22;11649;48.090;9.754;2022-10-26T09:37:22;15.90;99.90
22966;DHT22;11649;48.090;9.754;2022-10-26T09:40:16;16.20;99.90
22966;DHT22;11649;48.090;9.754;2022-10-26T09:42:59;16.20;99.90
22966;DHT22;11649;48.090;9.754;2022-10-26T09:45:36;16.30;99.90
22966;DHT22;11649;48.090;9.754;2022-10-26T09:48:18;16.30;99.90
22966;DHT22;11649;48.090;9.754;2022-10-26T09:50:49;16.20;99.90
22966;DHT22;11649;48.090;9.754;2022-10-26T09:53:17;16.20;99.90
22966;DHT22;11649;48.090;9.754;2022-10-26T09:55:46;16.20;99.90
22966;DHT22;11649;48.090;9.754;2022-10-26T09:58:18;16.20;99.90
22966;DHT22;11649;48.090;9.754;2022-10-26T10:00:46;16.20;99.90
22966;DHT22;11649;48.090;9.754;2022-10-26T10:03:18;16.20;99.90
22966;DHT22;11649;48.090;9.754;2022-10-26T10:05:45;16.30;99.90
22966;DHT22;11649;48.090;9.754;2022-10-26T10:08:27;16.30;99.90
22966;DHT22;11649;48.090;9.754;2022-10-26T10:13:31;16.30;99.90
22966;DHT22;11649;48.090;9.754;2022-10-26T10:18:32;16.40;99.90
22966;DHT22;11649;48.090;9.754;2022-10-26T10:21:01;16.60;99.90
22966;DHT22;11649;48.090;9.754;2022-10-26T10:23:54;16.70;99.90
22966;DHT22;11649;48.090;9.754;2022-10-26T10:26:19;16.90;99.90
22966;DHT22;11649;48.090;9.754;2022-10-26T10:28:59;17.30;99.90
22966;DHT22;11649;48.090;9.754;2022-10-26T10:31:31;17.60;99.90
22966;DHT22;11649;48.090;9.754;2022-10-26T10:33:58;17.60;99.90
22966;DHT22;11649;48.090;9.754;2022-10-26T10:36:27;17.60;99.90
22966;DHT22;11649;48.090;9.754;2022-10-26T10:38:58;17.60;99.90
22966;DHT22;11649;48.090;9.754;2022-10-26T10:43:55;17.90;99.90
22966;DHT22;11649;48.090;9.754;2022-10-26T10:46:25;18.20;99.90
22966;DHT22;11649;48.090;9.754;2022-10-26T10:49:00;18.30;99.90
22966;DHT22;11649;48.090;9.754;2022-10-26T10:51:37;18.20;99.90
22966;DHT22;11649;48.090;9.754;2022-10-26T10:54:14;18.20;99.90
22966;DHT22;11649;48.090;9.754;2022-10-26T10:57:10;18.30;99.90
22966;DHT22;11649;48.090;9.754;2022-10-26T11:00:03;18.60;99.90
22966;DHT22;11649;48.090;9.754;2022-10-26T11:06:04;18.70;99.90
22966;DHT22;11649;48.090;9.754;2022-10-26T11:11:18;18.30;99.90
22966;DHT22;11649;48.090;9.754;2022-10-26T11:14:09;18.20;99.90
22966;DHT22;11649;48.090;9.754;2022-10-26T11:16:50;18.20;99.90
22966;DHT22;11649;48.090;9.754;2022-10-26T11:19:29;18.40;99.90
22966;DHT22;11649;48.090;9.754;2022-10-26T11:21:58;18.40;99.90
22966;DHT22;11649;48.090;9.754;2022-10-26T11:24:41;18.40;99.90
22966;DHT22;11649;48.090;9.754;2022-10-26T11:27:29;18.30;99.90
22966;DHT22;11649;48.090;9.754;2022-10-26T11:30:18;18.30;99.90
22966;DHT22;11649;48.090;9.754;2022-10-26T11:33:12;18.00;99.90
22966;DHT22;11649;48.090;9.754;2022-10-26T11:35:57;17.90;99.90
22966;DHT22;11649;48.090;9.754;2022-10-26T11:38:35;17.90;99.90
22966;DHT22;11649;48.090;9.754;2022-10-26T11:41:46;17.80;99.90
22966;DHT22;11649;48.090;9.754;2022-10-26T11:44:21;17.70;99.90
22966;DHT22;11649;48.090;9.754;2022-10-26T11:46:55;17.90;99.90
22966;DHT22;11649;48.090;9.754;2022-10-26T11:49:32;18.10;99.90
22966;DHT22;11649;48.090;9.754;2022-10-26T11:52:07;18.10;99.90
22966;DHT22;11649;48.090;9.754;2022-10-26T11:54:46;18.10;99.90
22966;DHT22;11649;48.090;9.754;2022-10-26T11:57:15;18.20;99.90
22966;DHT22;11649;48.090;9.754;2022-10-26T11:59:46;18.30;99.90
22966;DHT22;11649;48.090;9.754;2022-10-26T12:02:18;18.60;99.90
22966;DHT22;11649;48.090;9.754;2022-10-26T12:04:56;18.60;99.90
22966;DHT22;11649;48.090;9.754;2022-10-26T12:07:29;18.70;99.90
22966;DHT22;11649;48.090;9.754;2022-10-26T12:09:56;18.90;99.90
22966;DHT22;11649;48.090;9.754;2022-10-26T12:12:42;18.90;99.20
22966;DHT22;11649;48.090;9.754;2022-10-26T12:15:45;19.10;99.90
22966;DHT22;11649;48.090;9.754;2022-10-26T12:18:58;19.10;99.90
22966;DHT22;11649;48.090;9.754;2022-10-26T12:21:27;19.10;97.30
22966;DHT22;11649;48.090;9.754;2022-10-26T12:23:57;19.10;98.70
22966;DHT22;11649;48.090;9.754;2022-10-26T12:34:09;19.10;99.10
22966;DHT22;11649;48.090;9.754;2022-10-26T12:39:33;19.20;97.90
22966;DHT22;11649;48.090;9.754;2022-10-26T12:44:38;19.30;99.00
22966;DHT22;11649;48.090;9.754;2022-10-26T12:52:48;19.30;99.40
22966;DHT22;11649;48.090;9.754;2022-10-26T12:55:47;19.30;96.80
22966;DHT22;11649;48.090;9.754;2022-10-26T13:01:20;19.30;96.50
22966;DHT22;11649;48.090;9.754;2022-10-26T13:06:57;19.50;94.80
22966;DHT22;11649;48.090;9.754;2022-10-26T13:09:32;19.60;94.30
22966;DHT22;11649;48.090;9.754;2022-10-26T13:12:01;19.60;95.00
22966;DHT22;11649;48.090;9.754;2022-10-26T13:14:35;19.60;94.50
22966;DHT22;11649;48.090;9.754;2022-10-26T13:17:21;19.80;94.50
22966;DHT22;11649;48.090;9.754;2022-10-26T13:19:54;19.70;94.40
22966;DHT22;11649;48.090;9.754;2022-10-26T13:22:23;19.50;96.60
22966;DHT22;11649;48.090;9.754;2022-10-26T13:25:01;19.60;95.40
22966;DHT22;11649;48.090;9.754;2022-10-26T13:30:21;19.40;97.20
22966;DHT22;11649;48.090;9.754;2022-10-26T13:33:01;19.50;96.70
22966;DHT22;11649;48.090;9.754;2022-10-26T13:35:30;19.70;95.70
22966;DHT22;11649;48.090;9.754;2022-10-26T13:37:59;20.30;93.10
22966;DHT22;11649;48.090;9.754;2022-10-26T13:40:35;20.30;92.20
22966;DHT22;11649;48.090;9.754;2022-10-26T13:43:05;20.80;91.80
22966;DHT22;11649;48.090;9.754;2022-10-26T13:45:48;20.60;91.20
22966;DHT22;11649;48.090;9.754;2022-10-26T13:48:21;20.90;90.20
22966;DHT22;11649;48.090;9.754;2022-10-26T13:50:55;21.50;86.00
22966;DHT22;11649;48.090;9.754;2022-10-26T13:56:43;21.10;84.20
22966;DHT22;11649;48.090;9.754;2022-10-26T13:58:57;20.80;85.40
22966;DHT22;11649;48.090;9.754;2022-10-26T14:01:27;20.30;90.20
22966;DHT22;11649;48.090;9.754;2022-10-26T14:03:54;20.00;92.00
22966;DHT22;11649;48.090;9.754;2022-10-26T14:06:23;19.70;92.90
22966;DHT22;11649;48.090;9.754;2022-10-26T14:08:53;19.50;94.60
22966;DHT22;11649;48.090;9.754;2022-10-26T14:11:27;19.40;96.60
22966;DHT22;11649;48.090;9.754;2022-10-26T14:13:56;19.50;95.20
22966;DHT22;11649;48.090;9.754;2022-10-26T14:16:26;19.40;95.10
22966;DHT22;11649;48.090;9.754;2022-10-26T14:18:54;19.30;96.10
22966;DHT22;11649;48.090;9.754;2022-10-26T14:21:22;19.30;96.90
22966;DHT22;11649;48.090;9.754;2022-10-26T14:26:40;19.00;98.60
22966;DHT22;11649;48.090;9.754;2022-10-26T14:29:15;19.00;99.10
22966;DHT22;11649;48.090;9.754;2022-10-26T14:31:43;19.10;98.30
22966;DHT22;11649;48.090;9.754;2022-10-26T14:34:11;19.20;98.70
22966;DHT22;11649;48.090;9.754;2022-10-26T14:36:48;19.20;97.90
22966;DHT22;11649;48.090;9.754;2022-10-26T14:39:18;19.20;97.10
22966;DHT22;11649;48.090;9.754;2022-10-26T14:41:46;19.30;96.90
22966;DHT22;11649;48.090;9.754;2022-10-26T14:44:19;19.30;96.80
22966;DHT22;11649;48.090;9.754;2022-10-26T14:46:47;19.20;97.80
22966;DHT22;11649;48.090;9.754;2022-10-26T14:49:23;19.10;97.00
22966;DHT22;11649;48.090;9.754;2022-10-26T14:51:58;19.20;97.40
22966;DHT22;11649;48.090;9.754;2022-10-26T14:54:27;19.00;98.60
22966;DHT22;11649;48.090;9.754;2022-10-26T14:56:55;19.00;99.10
22966;DHT22;11649;48.090;9.754;2022-10-26T14:59:25;18.90;98.90
22966;DHT22;11649;48.090;9.754;2022-10-26T15:01:58;18.80;99.90
22966;DHT22;11649;48.090;9.754;2022-10-26T15:04:33;18.80;99.40
22966;DHT22;11649;48.090;9.754;2022-10-26T15:07:15;18.70;99.90
22966;DHT22;11649;48.090;9.754;2022-10-26T15:09:52;18.70;99.90
22966;DHT22;11649;48.090;9.754;2022-10-26T15:14:49;18.80;99.90
22966;DHT22;11649;48.090;9.754;2022-10-26T15:17:47;18.70;99.90
22966;DHT22;11649;48.090;9.754;2022-10-26T15:20:18;18.60;99.90
22966;DHT22;11649;48.090;9.754;2022-10-26T15:23:00;18.60;99.90
22966;DHT22;11649;48.090;9.754;2022-10-26T15:25:31;18.60;99.90
22966;DHT22;11649;48.090;9.754;2022-10-26T15:28:31;18.60;99.90
22966;DHT22;11649;48.090;9.754;2022-10-26T15:33:39;18.50;99.90
22966;DHT22;11649;48.090;9.754;2022-10-26T15:38:44;18.40;99.90
22966;DHT22;11649;48.090;9.754;2022-10-26T15:43:54;18.20;99.90
22966;DHT22;11649;48.090;9.754;2022-10-26T15:46:29;18.10;99.90
22966;DHT22;11649;48.090;9.754;2022-10-26T15:48:58;18.00;99.90
22966;DHT22;11649;48.090;9.754;2022-10-26T15:51:26;17.90;99.90
22966;DHT22;11649;48.090;9.754;2022-10-26T15:54:01;17.90;99.90
22966;DHT22;11649;48.090;9.754;2022-10-26T15:56:29;17.80;99.90
22966;DHT22;11649;48.090;9.754;2022-10-26T15:58:56;17.70;99.90
22966;DHT22;11649;48.090;9.754;2022-10-26T16:01:26;17.60;99.90
22966;DHT22;11649;48.090;9.754;2022-10-26T16:03:54;17.50;99.90
22966;DHT22;11649;48.090;9.754;2022-10-26T16:06:26;17.50;99.90
22966;DHT22;11649;48.090;9.754;2022-10-26T16:08:56;17.50;99.90
22966;DHT22;11649;48.090;9.754;2022-10-26T16:11:23;17.50;99.90
22966;DHT22;11649;48.090;9.754;2022-10-26T16:13:50;17.30;99.90
22966;DHT22;11649;48.090;9.754;2022-10-26T16:16:18;17.20;99.90
22966;DHT22;11649;48.090;9.754;2022-10-26T16:18:46;17.10;99.90
22966;DHT22;11649;48.090;9.754;2022-10-26T16:21:16;17.00;99.90
22966;DHT22;11649;48.090;9.754;2022-10-26T16:23:49;16.80;99.90
22966;DHT22;11649;48.090;9.754;2022-10-26T16:26:16;16.80;99.90
22966;DHT22;11649;48.090;9.754;2022-10-26T16:28:43;16.60;99.90
22966;DHT22;11649;48.090;9.754;2022-10-26T16:31:15;16.60;99.90
22966;DHT22;11649;48.090;9.754;2022-10-26T16:33:42;16.40;99.90
22966;DHT22;11649;48.090;9.754;2022-10-26T16:36:11;16.30;99.90
22966;DHT22;11649;48.090;9.754;2022-10-26T16:38:38;16.10;99.90
22966;DHT22;11649;48.090;9.754;2022-10-26T16:41:10;16.00;99.90
22966;DHT22;11649;48.090;9.754;2022-10-26T16:43:40;15.90;99.90
22966;DHT22;11649;48.090;9.754;2022-10-26T16:46:10;15.80;99.90
22966;DHT22;11649;48.090;9.754;2022-10-26T16:48:39;15.70;99.90
22966;DHT22;11649;48.090;9.754;2022-10-26T16:51:11;15.50;99.90
22966;DHT22;11649;48.090;9.754;2022-10-26T16:53:38;15.50;99.90
22966;DHT22;11649;48.090;9.754;2022-10-26T16:56:08;15.40;99.90
22966;DHT22;11649;48.090;9.754;2022-10-26T16:58:36;15.30;99.90
22966;DHT22;11649;48.090;9.754;2022-10-26T17:01:04;15.30;99.90
22966;DHT22;11649;48.090;9.754;2022-10-26T17:03:31;15.20;99.90
22966;DHT22;11649;48.090;9.754;2022-10-26T17:06:00;15.20;99.90
22966;DHT22;11649;48.090;9.754;2022-10-26T17:08:27;15.20;99.90
22966;DHT22;11649;48.090;9.754;2022-10-26T17:11:07;15.10;99.90
22966;DHT22;11649;48.090;9.754;2022-10-26T17:13:35;15.10;99.90
22966;DHT22;11649;48.090;9.754;2022-10-26T17:16:04;15.10;99.90
22966;DHT22;11649;48.090;9.754;2022-10-26T17:18:31;15.00;99.90
22966;DHT22;11649;48.090;9.754;2022-10-26T17:20:58;14.90;99.90
22966;DHT22;11649;48.090;9.754;2022-10-26T17:23:25;14.80;99.90
22966;DHT22;11649;48.090;9.754;2022-10-26T17:25:51;14.70;99.90
22966;DHT22;11649;48.090;9.754;2022-10-26T17:28:18;14.50;99.90
22966;DHT22;11649;48.090;9.754;2022-10-26T17:30:45;14.50;99.90
22966;DHT22;11649;48.090;9.754;2022-10-26T17:33:12;14.40;99.90
22966;DHT22;11649;48.090;9.754;2022-10-26T17:35:39;14.30;99.90
22966;DHT22;11649;48.090;9.754;2022-10-26T17:38:05;14.30;99.90
22966;DHT22;11649;48.090;9.754;2022-10-26T17:40:32;14.70;99.90
22966;DHT22;11649;48.090;9.754;2022-10-26T17:42:59;14.40;99.90
22966;DHT22;11649;48.090;9.754;2022-10-26T17:45:26;14.50;99.90
22966;DHT22;11649;48.090;9.754;2022-10-26T17:47:52;14.10;99.90
22966;DHT22;11649;48.090;9.754;2022-10-26T17:50:19;14.10;99.90
22966;DHT22;11649;48.090;9.754;2022-10-26T17:52:46;14.00;99.90
22966;DHT22;11649;48.090;9.754;2022-10-26T17:55:13;14.00;99.90
22966;DHT22;11649;48.090;9.754;2022-10-26T17:57:39;13.90;99.90
22966;DHT22;11649;48.090;9.754;2022-10-26T18:00:07;13.80;99.90
22966;DHT22;11649;48.090;9.754;2022-10-26T18:02:34;13.80;99.90
22966;DHT22;11649;48.090;9.754;2022-10-26T18:05:04;13.80;99.90
22966;DHT22;11649;48.090;9.754;2022-10-26T18:07:33;13.80;99.90